Latest Coastal Weather Observations for Robe Airport

IDV60701

Issued at 7:35 pm EST Friday 25 April 2014 (issued every 10 minutes, with the page automatically refreshed every 10 minutes)

About coastal observations | Map of coastal stations | Coastal observations for VIC | Marine services | Other Formats
Station Details ID: 026105 Name: ROBE AIRFIELD Lat: -37.18 Lon: 139.81 Height: 3.0 m
Data from the previous 72 hours. | See also: Recent months for locations in Victoria
Date/Time
EST
Temp

°C
Wind Pressure Rain
since 9am
mm
Weather Cloud Vis
km
Sea
Height
m
Swell
Dir
 
Speed
knots
Gust
knots
hPa Trend Height
m
Period
s
Dir
25/07:30pm 17.7 N 9 13 1010.1 - 0.0 - - - - - - -
25/07:00pm 17.6 N 10 13 1010.3 - 0.0 - - - - - - -
25/06:30pm 17.7 N 9 13 1010.3 - 0.0 - - - - - - -
25/06:00pm 17.8 N 9 12 1010.4 - 0.0 - - - - - - -
25/05:30pm 18.3 N 10 13 1010.5 - 0.0 - - - - - - -
25/05:00pm 18.4 N 10 14 1010.6 - 0.0 - - - - - - -
25/04:30pm 17.4 NNW 7 9 1011.1 - 0.0 - - - - - - -
25/04:00pm 17.5 NNW 8 11 1011.5 - 0.0 - - - - - - -
25/03:30pm 17.6 NW 9 12 1011.8 - 0.0 - - - - - - -
25/03:00pm 18.9 NNW 10 15 1012.0 - 0.0 - - - - - - -
25/02:30pm 19.6 NNW 14 21 1012.3 - 0.0 - - - - - - -
25/02:00pm 20.3 NNW 14 19 1012.5 - 0.0 - - - - - - -
25/01:30pm 19.8 N 16 21 1013.2 - 0.0 - - - - - - -
25/01:00pm 19.6 N 17 21 1013.8 - 0.0 - - - - - - -
25/12:30pm 18.4 N 18 26 1014.5 - 0.0 - - - - - - -
25/12:00pm 18.2 N 14 19 1015.0 - 0.0 - - - - - - -
25/11:30am 17.7 N 12 17 1015.6 - 0.0 - - - - - - -
25/11:00am 15.9 N 13 17 1016.1 - 0.0 - - - - - - -
25/10:30am 14.7 NNE 13 18 1016.5 - 0.0 - - - - - - -
25/10:00am 13.1 NNE 14 18 1017.0 - 0.0 - - - - - - -
25/09:30am 11.3 NNE 12 16 1017.5 - 0.0 - - - - - - -
25/09:00am 8.7 NE 11 16 1018.0 - 0.0 - - - - - - -
25/08:30am 7.0 NE 8 11 1018.1 - 0.0 - - - - - - -
25/08:00am 5.7 NE 10 12 1018.1 - 0.0 - - - - - - -
25/07:30am 4.7 NE 7 9 1018.1 - 0.0 - - - - - - -
25/07:00am 4.5 NE 6 8 1018.2 - 0.0 - - - - - - -
25/06:30am 4.5 ENE 6 7 1018.2 - 0.0 - - - - - - -
25/06:00am 5.2 ENE 6 8 1018.4 - 0.0 - - - - - - -
25/05:30am 5.4 ENE 6 8 1018.5 - 0.0 - - - - - - -
25/05:00am 5.9 ENE 6 9 1018.4 - 0.0 - - - - - - -
25/04:30am 4.9 E 4 6 1018.8 - 0.0 - - - - - - -
25/04:00am 4.0 E 3 4 1019.0 - 0.0 - - - - - - -
25/03:30am 5.3 E 5 6 1019.2 - 0.0 - - - - - - -
25/03:00am 5.6 E 4 7 1019.3 - 0.0 - - - - - - -
25/02:30am 5.5 E 5 6 1019.8 - 0.0 - - - - - - -
25/02:00am 6.4 ENE 5 7 1020.2 - 0.0 - - - - - - -
25/01:30am 6.3 E 5 6 1020.2 - 0.0 - - - - - - -
25/01:00am 6.7 ENE 5 6 1020.4 - 0.0 - - - - - - -
25/12:30am 6.9 E 4 5 1020.4 - 0.0 - - - - - - -
25/12:00am 7.1 E 4 6 1020.5 - 0.0 - - - - - - -
 
Date/Time
EST
Temp

°C
Wind Pressure Rain
since 9am
mm
Weather Cloud Vis
km
Sea
Height
m
Swell
Dir
 
Speed
knots
Gust
knots
hPa Trend Height
m
Period
s
Dir
24/11:30pm 7.4 E 5 7 1020.5 - 0.0 - - - - - - -
24/11:00pm 6.9 E 4 6 1020.8 - 0.0 - - - - - - -
24/10:30pm 6.9 ESE 2 3 1021.0 - 0.0 - - - - - - -
24/10:00pm 8.0 SE 3 4 1021.2 - 0.0 - - - - - - -
24/09:30pm 6.9 SSE 3 3 1021.2 - 0.0 - - - - - - -
24/09:00pm 8.1 SSE 3 4 1021.0 - 0.0 - - - - - - -
24/08:30pm 7.6 SSE 2 3 1020.9 - 0.0 - - - - - - -
24/08:00pm 8.4 SSE 2 4 1020.6 - 0.0 - - - - - - -
24/07:30pm 9.9 S 3 5 1020.3 - 0.0 - - - - - - -
24/07:00pm 10.4 S 3 4 1020.2 - 0.0 - - - - - - -
24/06:30pm 10.9 S 4 5 1019.8 - 0.0 - - - - - - -
24/06:00pm 12.7 S 5 7 1019.5 - 0.0 - - - - - - -
24/05:30pm 14.3 SSW 5 7 1019.6 - 0.0 - - - - - - -
24/05:00pm 14.9 S 8 11 1019.3 - 0.0 - - - - - - -
24/04:30pm 15.6 S 8 12 1019.2 - 0.0 - - - - - - -
24/04:00pm 15.8 S 8 13 1019.1 - 0.0 - - - - - - -
24/03:30pm 16.2 SSW 7 11 1019.1 - 0.0 - - - - - - -
24/03:00pm 15.6 SSW 7 12 1018.8 - 0.0 - - - - - - -
24/02:30pm 16.2 S 9 14 1018.6 - 0.0 - - - - - - -
24/02:00pm 16.6 S 11 15 1018.6 - 0.0 - - - - - - -
24/01:30pm 16.6 S 10 13 1018.8 - 0.0 - - - - - - -
24/01:00pm 16.7 S 9 15 1019.1 - 0.0 - - - - - - -
24/12:30pm 16.4 S 10 16 1019.2 - 0.0 - - - - - - -
24/12:00pm 16.5 SSW 10 16 1019.2 - 0.0 - - - - - - -
24/11:30am 15.4 S 11 14 1019.2 - 0.0 - - - - - - -
24/11:00am 15.9 S 10 15 1019.0 - 0.0 - - - - - - -
24/10:30am 15.4 S 11 16 1018.9 - 0.0 - - - - - - -
24/10:00am 15.2 S 11 16 1018.5 - 0.0 - - - - - - -
24/09:30am 15.6 SSW 12 17 1018.4 - 3.2 - - - - - - -
24/09:00am 14.5 SSW 12 19 1018.1 - 3.2 - - - - - - -
24/08:30am 14.1 SSW 13 20 1017.5 - 3.2 - - - - - - -
24/08:00am 13.8 SSW 10 17 1016.9 - 3.2 - - - - - - -
24/07:30am 13.1 SW 8 12 1016.3 - 3.2 - - - - - - -
24/07:00am 13.1 SSW 13 22 1015.9 - 3.2 - - - - - - -
24/06:30am 13.8 SSW 11 16 1015.4 - 3.2 - - - - - - -
24/06:00am 14.3 SSW 14 23 1014.7 - 3.2 - - - - - - -
24/05:30am 14.4 SSW 12 21 1014.2 - 3.2 - - - - - - -
24/05:00am 14.5 SSW 15 21 1013.6 - 3.2 - - - - - - -
24/04:30am 14.3 SSW 14 22 1012.9 - 3.2 - - - - - - -
24/04:00am 15.0 SW 15 22 1012.4 - 3.2 - - - - - - -
24/03:30am 14.5 WSW 10 19 1012.2 - 3.2 Recent precip. - - - - - -
24/03:00am 16.2 WNW 11 17 1011.7 - 0.6 - - - - - - -
24/02:36am 16.4 NW 15 27 1011.7 - 0.6 - - - - - - -
24/02:30am 16.4 NW 14 19 1011.7 - 0.6 - - - - - - -
24/02:00am 16.1 NW 14 20 1011.9 - 0.6 - - - - - - -
24/01:30am 16.0 NW 13 20 1011.9 - 0.6 - - - - - - -
24/01:00am 16.0 NW 13 18 1012.0 - 0.6 - - - - - - -
24/12:30am 15.8 NW 14 20 1012.2 - 0.6 - - - - - - -
24/12:00am 15.6 NW 14 20 1012.2 - 0.6 - - - - - - -
 
Date/Time
EST
Temp

°C
Wind Pressure Rain
since 9am
mm
Weather Cloud Vis
km
Sea
Height
m
Swell
Dir
 
Speed
knots
Gust
knots
hPa Trend Height
m
Period
s
Dir
23/11:30pm 15.6 NW 12 16 1012.5 - 0.6 - - - - - - -
23/11:00pm 15.7 NW 11 17 1012.6 - 0.6 - - - - - - -
23/10:30pm 15.5 NW 11 17 1012.8 - 0.6 - - - - - - -
23/10:00pm 15.6 NW 13 17 1013.0 - 0.4 - - - - - - -
23/09:30pm 15.1 NW 13 19 1013.0 - 0.4 Rain - - - - - -
23/09:00pm 16.0 NW 11 15 1013.1 - 0.0 - - - - - - -
23/08:30pm 16.1 NNW 10 14 1013.1 - 0.0 - - - - - - -
23/08:00pm 16.0 NNW 10 14 1013.1 - 0.0 - - - - - - -
23/07:30pm 15.2 N 10 12 1013.0 - 0.0 - - - - - - -
23/07:00pm 15.0 N 10 14 1012.9 - 0.0 - - - - - - -
23/06:30pm 15.0 N 9 12 1012.9 - 0.0 - - - - - - -
23/06:00pm 15.1 NNW 11 16 1013.0 - 0.0 - - - - - - -
23/05:30pm 15.7 NNW 14 18 1013.0 - 0.0 - - - - - - -
23/05:00pm 16.0 NNW 14 19 1013.0 - 0.0 - - - - - - -
23/04:30pm 17.1 NNW 14 18 1013.2 - 0.0 - - - - - - -
23/04:00pm 16.7 NNW 13 18 1013.4 - 0.0 - - - - - - -
23/03:30pm 17.7 NNW 14 19 1013.5 - 0.0 - - - - - - -
23/03:00pm 16.9 NNW 15 19 1013.8 - 0.0 - - - - - - -
23/02:30pm 18.0 NNW 16 21 1013.9 - 0.0 - - - - - - -
23/02:00pm 18.0 NNW 16 21 1014.3 - 0.0 - - - - - - -
23/01:30pm 18.4 NNW 15 21 1014.6 - 0.0 - - - - - - -
23/01:00pm 17.7 NNW 14 20 1015.3 - 0.0 - - - - - - -
23/12:30pm 17.9 NNW 15 19 1015.7 - 0.0 - - - - - - -
23/12:00pm 18.0 NNW 13 18 1016.2 - 0.0 - - - - - - -
23/11:30am 17.2 NNW 12 16 1016.6 - 0.0 - - - - - - -
23/11:00am 17.1 NW 11 15 1016.8 - 0.0 - - - - - - -
23/10:30am 16.9 NNW 10 14 1016.9 - 0.0 - - - - - - -
23/10:00am 16.0 N 6 9 1017.1 - 0.0 - - - - - - -
23/09:30am 15.5 NNW 6 9 1017.1 - 0.4 - - - - - - -
23/09:00am 13.1 NNW 3 5 1017.2 - 0.4 - - - - - - -
23/08:30am 10.7 N 2 3 1017.3 - 0.4 - - - - - - -
23/08:00am 8.2 N 2 3 1017.0 - 0.4 - - - - - - -
23/07:30am 6.6 N 2 2 1016.7 - 0.4 - - - - - - -
23/07:00am 6.9 N 2 4 1016.7 - 0.4 - - - - - - -
23/06:30am 6.7 CALM 0 0 1016.7 - 0.4 - - - - - - -
23/06:00am 7.3 N 2 3 1016.9 - 0.4 - - - - - - -
23/05:30am 6.8 N 1 3 1017.1 - 0.4 - - - - - - -
23/05:00am 6.9 N 2 3 1017.0 - 0.4 - - - - - - -
23/04:30am 6.8 N 2 3 1016.7 - 0.4 - - - - - - -
23/04:00am 6.4 N 2 3 1016.7 - 0.4 - - - - - - -
23/03:30am 6.6 N 2 2 1016.9 - 0.4 - - - - - - -
23/03:00am 7.3 N 2 3 1017.2 - 0.4 - - - - - - -
23/02:30am 7.5 N 2 4 1017.0 - 0.4 - - - - - - -
23/02:00am 7.1 N 2 4 1017.5 - 0.4 - - - - - - -
23/01:30am 8.7 N 1 2 1017.9 - 0.4 - - - - - - -
23/01:00am 8.3 N 2 3 1018.2 - 0.4 - - - - - - -
23/12:30am 8.0 CALM 0 0 1017.8 - 0.4 - - - - - - -
23/12:00am 6.7 N 2 3 1017.9 - 0.4 - - - - - - -
 
Date/Time
EST
Temp

°C
Wind Pressure Rain
since 9am
mm
Weather Cloud Vis
km
Sea
Height
m
Swell
Dir
 
Speed
knots
Gust
knots
hPa Trend Height
m
Period
s
Dir
22/11:30pm 8.4 CALM 0 0 1018.4 - 0.4 - - - - - - -
22/11:00pm 9.7 CALM 0 0 1018.7 - 0.4 - - - - - - -
22/10:30pm 11.0 NW 2 2 1018.8 - 0.4 - - - - - - -
22/10:00pm 11.2 W 1 3 1018.8 - 0.4 - - - - - - -
22/09:30pm 9.8 SW 1 2 1018.8 - 0.2 Rain - - - - - -
22/09:00pm 8.3 CALM 0 0 1018.6 - 0.0 - - - - - - -
22/08:30pm 9.2 CALM 0 2 1018.5 - 0.0 - - - - - - -

Other Formats:

Comma delimited format used in spreadsheet applications
http://www.bom.gov.au/fwo/IDV60701/IDV60701.95816.axf

JavaScript Object Notation format (JSON) in row-major order
http://www.bom.gov.au/fwo/IDV60701/IDV60701.95816.json